sensor_id;sensor_type;location;lat;lon;timestamp;pressure;altitude;pressure_sealevel;temperature;humidity
74798;BME280;63326;45.088;7.658;2023-04-24T00:01:05;97874.50;;;12.38;80.41
74798;BME280;63326;45.088;7.658;2023-04-24T00:03:34;97877.78;;;12.40;80.00
74798;BME280;63326;45.088;7.658;2023-04-24T00:06:02;97871.59;;;12.39;80.10
74798;BME280;63326;45.088;7.658;2023-04-24T00:08:29;97869.34;;;12.30;80.60
74798;BME280;63326;45.088;7.658;2023-04-24T00:10:56;97859.47;;;12.17;81.06
74798;BME280;63326;45.088;7.658;2023-04-24T00:13:23;97875.56;;;12.30;80.82
74798;BME280;63326;45.088;7.658;2023-04-24T00:15:49;97871.00;;;12.24;80.84
74798;BME280;63326;45.088;7.658;2023-04-24T00:18:16;97876.59;;;12.23;81.30
74798;BME280;63326;45.088;7.658;2023-04-24T00:20:43;97862.78;;;12.19;80.87
74798;BME280;63326;45.088;7.658;2023-04-24T00:23:10;97870.41;;;12.16;81.10
74798;BME280;63326;45.088;7.658;2023-04-24T00:25:37;97880.78;;;12.12;82.23
74798;BME280;63326;45.088;7.658;2023-04-24T00:28:03;97873.75;;;12.04;81.50
74798;BME280;63326;45.088;7.658;2023-04-24T00:30:30;97875.22;;;12.00;80.89
74798;BME280;63326;45.088;7.658;2023-04-24T00:32:57;97877.91;;;12.07;81.80
74798;BME280;63326;45.088;7.658;2023-04-24T00:35:24;97864.47;;;12.00;81.81
74798;BME280;63326;45.088;7.658;2023-04-24T00:37:51;97853.13;;;11.92;81.57
74798;BME280;63326;45.088;7.658;2023-04-24T00:40:18;97851.91;;;11.88;82.02
74798;BME280;63326;45.088;7.658;2023-04-24T00:42:44;97844.66;;;11.88;82.16
74798;BME280;63326;45.088;7.658;2023-04-24T00:45:12;97856.84;;;11.91;82.02
74798;BME280;63326;45.088;7.658;2023-04-24T00:47:39;97845.28;;;11.83;82.22
74798;BME280;63326;45.088;7.658;2023-04-24T00:50:07;97850.66;;;11.77;82.40
74798;BME280;63326;45.088;7.658;2023-04-24T00:52:34;97850.44;;;11.78;82.30
74798;BME280;63326;45.088;7.658;2023-04-24T00:55:01;97850.03;;;11.81;82.46
74798;BME280;63326;45.088;7.658;2023-04-24T00:57:28;97845.06;;;11.78;82.77
74798;BME280;63326;45.088;7.658;2023-04-24T00:59:54;97845.50;;;11.75;83.00
74798;BME280;63326;45.088;7.658;2023-04-24T01:02:22;97841.56;;;11.78;82.83
74798;BME280;63326;45.088;7.658;2023-04-24T01:04:50;97816.78;;;11.69;83.04
74798;BME280;63326;45.088;7.658;2023-04-24T01:07:20;97837.44;;;11.69;83.64
74798;BME280;63326;45.088;7.658;2023-04-24T01:09:50;97834.56;;;11.57;83.83
74798;BME280;63326;45.088;7.658;2023-04-24T01:12:18;97830.03;;;11.51;84.29
74798;BME280;63326;45.088;7.658;2023-04-24T01:14:45;97819.53;;;11.36;83.83
74798;BME280;63326;45.088;7.658;2023-04-24T01:17:14;97827.78;;;11.48;83.89
74798;BME280;63326;45.088;7.658;2023-04-24T01:19:42;97830.44;;;11.48;84.40
74798;BME280;63326;45.088;7.658;2023-04-24T01:22:13;97827.16;;;11.39;84.14
74798;BME280;63326;45.088;7.658;2023-04-24T01:24:41;97831.47;;;11.34;84.98
74798;BME280;63326;45.088;7.658;2023-04-24T01:27:09;97834.16;;;11.20;85.06
74798;BME280;63326;45.088;7.658;2023-04-24T01:29:37;97819.91;;;11.13;85.31
74798;BME280;63326;45.088;7.658;2023-04-24T01:32:04;97825.94;;;11.15;84.97
74798;BME280;63326;45.088;7.658;2023-04-24T01:34:31;97823.03;;;11.04;85.67
74798;BME280;63326;45.088;7.658;2023-04-24T01:36:58;97821.75;;;10.93;85.64
74798;BME280;63326;45.088;7.658;2023-04-24T01:39:26;97821.78;;;10.86;86.07
74798;BME280;63326;45.088;7.658;2023-04-24T01:41:55;97832.69;;;10.78;86.40
74798;BME280;63326;45.088;7.658;2023-04-24T01:44:23;97809.75;;;10.62;87.02
74798;BME280;63326;45.088;7.658;2023-04-24T01:46:49;97812.44;;;10.62;86.58
74798;BME280;63326;45.088;7.658;2023-04-24T01:49:17;97835.75;;;10.68;86.40
74798;BME280;63326;45.088;7.658;2023-04-24T01:51:44;97834.72;;;10.63;86.77
74798;BME280;63326;45.088;7.658;2023-04-24T01:54:11;97835.56;;;10.63;87.07
74798;BME280;63326;45.088;7.658;2023-04-24T01:56:42;97837.63;;;10.68;86.30
74798;BME280;63326;45.088;7.658;2023-04-24T01:59:13;97818.00;;;10.61;86.96
74798;BME280;63326;45.088;7.658;2023-04-24T02:01:39;97838.88;;;10.79;86.47
74798;BME280;63326;45.088;7.658;2023-04-24T02:04:07;97837.84;;;10.80;86.25
74798;BME280;63326;45.088;7.658;2023-04-24T02:06:35;97830.41;;;10.75;86.38
74798;BME280;63326;45.088;7.658;2023-04-24T02:09:02;97835.78;;;10.82;86.86
74798;BME280;63326;45.088;7.658;2023-04-24T02:11:29;97843.41;;;10.78;86.48
74798;BME280;63326;45.088;7.658;2023-04-24T02:13:56;97834.72;;;10.70;86.59
74798;BME280;63326;45.088;7.658;2023-04-24T02:16:23;97853.50;;;10.83;85.91
74798;BME280;63326;45.088;7.658;2023-04-24T02:18:51;97817.00;;;10.68;86.49
74798;BME280;63326;45.088;7.658;2023-04-24T02:21:17;97829.59;;;10.81;86.03
74798;BME280;63326;45.088;7.658;2023-04-24T02:23:44;97814.72;;;10.72;86.09
74798;BME280;63326;45.088;7.658;2023-04-24T02:26:12;97829.59;;;10.81;86.03
74798;BME280;63326;45.088;7.658;2023-04-24T02:28:39;97819.25;;;10.72;85.44
74798;BME280;63326;45.088;7.658;2023-04-24T02:31:06;97823.81;;;10.78;85.24
74798;BME280;63326;45.088;7.658;2023-04-24T02:33:33;97817.19;;;10.67;85.28
74798;BME280;63326;45.088;7.658;2023-04-24T02:35:59;97829.19;;;10.78;85.41
74798;BME280;63326;45.088;7.658;2023-04-24T02:38:26;97821.75;;;10.73;85.05
74798;BME280;63326;45.088;7.658;2023-04-24T02:40:53;97824.22;;;10.75;85.02
74798;BME280;63326;45.088;7.658;2023-04-24T02:43:20;97813.28;;;10.63;85.04
74798;BME280;63326;45.088;7.658;2023-04-24T02:45:46;97835.34;;;10.72;84.75
74798;BME280;63326;45.088;7.658;2023-04-24T02:48:13;97827.94;;;10.74;84.96
74798;BME280;63326;45.088;7.658;2023-04-24T02:50:40;97819.06;;;10.73;85.39
74798;BME280;63326;45.088;7.658;2023-04-24T02:53:07;97826.91;;;10.75;84.99
74798;BME280;63326;45.088;7.658;2023-04-24T02:55:34;97820.28;;;10.64;85.25
74798;BME280;63326;45.088;7.658;2023-04-24T02:58:00;97829.38;;;10.76;85.22
74798;BME280;63326;45.088;7.658;2023-04-24T03:00:27;97828.34;;;10.64;85.63
74798;BME280;63326;45.088;7.658;2023-04-24T03:02:54;97828.94;;;10.66;85.82
74798;BME280;63326;45.088;7.658;2023-04-24T03:05:21;97825.22;;;10.60;86.50
74798;BME280;63326;45.088;7.658;2023-04-24T03:07:47;97816.13;;;10.61;85.77
74798;BME280;63326;45.088;7.658;2023-04-24T03:10:14;97821.91;;;10.58;86.02
74798;BME280;63326;45.088;7.658;2023-04-24T03:12:41;97811.41;;;10.57;85.50
74798;BME280;63326;45.088;7.658;2023-04-24T03:15:08;97795.47;;;10.35;85.39
74798;BME280;63326;45.088;7.658;2023-04-24T03:17:36;97797.53;;;10.40;85.94
74798;BME280;63326;45.088;7.658;2023-04-24T03:20:04;97794.66;;;10.42;85.55
74798;BME280;63326;45.088;7.658;2023-04-24T03:22:31;97784.97;;;10.34;85.53
74798;BME280;63326;45.088;7.658;2023-04-24T03:25:00;97780.19;;;10.23;85.86
74798;BME280;63326;45.088;7.658;2023-04-24T03:27:29;97770.41;;;10.02;86.09
74798;BME280;63326;45.088;7.658;2023-04-24T03:30:02;97787.09;;;10.10;86.54
74798;BME280;63326;45.088;7.658;2023-04-24T03:32:39;97785.69;;;10.15;86.36
74798;BME280;63326;45.088;7.658;2023-04-24T03:35:09;97780.34;;;10.15;85.90
74798;BME280;63326;45.088;7.658;2023-04-24T03:37:35;97782.88;;;10.23;86.52
74798;BME280;63326;45.088;7.658;2023-04-24T03:40:31;97779.06;;;10.10;86.66
74798;BME280;63326;45.088;7.658;2023-04-24T03:43:01;97797.44;;;10.14;86.46
74798;BME280;63326;45.088;7.658;2023-04-24T03:45:28;97795.03;;;9.91;86.59
74798;BME280;63326;45.088;7.658;2023-04-24T03:47:56;97801.78;;;9.73;87.46
74798;BME280;63326;45.088;7.658;2023-04-24T03:50:24;97802.56;;;9.67;87.58
74798;BME280;63326;45.088;7.658;2023-04-24T03:52:53;97787.88;;;9.57;87.17
74798;BME280;63326;45.088;7.658;2023-04-24T03:55:32;97806.47;;;9.65;86.97
74798;BME280;63326;45.088;7.658;2023-04-24T03:57:59;97800.50;;;9.69;86.85
74798;BME280;63326;45.088;7.658;2023-04-24T04:00:26;97793.22;;;9.57;87.83
74798;BME280;63326;45.088;7.658;2023-04-24T04:03:09;97803.72;;;9.51;88.22
74798;BME280;63326;45.088;7.658;2023-04-24T04:05:37;97801.56;;;9.40;88.10
74798;BME280;63326;45.088;7.658;2023-04-24T04:08:03;97808.53;;;9.35;88.16
74798;BME280;63326;45.088;7.658;2023-04-24T04:10:30;97810.56;;;9.33;88.42
74798;BME280;63326;45.088;7.658;2023-04-24T04:12:56;97809.53;;;9.34;88.78
74798;BME280;63326;45.088;7.658;2023-04-24T04:15:23;97805.59;;;9.30;88.25
74798;BME280;63326;45.088;7.658;2023-04-24T04:17:50;97793.69;;;9.32;88.59
74798;BME280;63326;45.088;7.658;2023-04-24T04:20:17;97804.19;;;9.34;88.33
74798;BME280;63326;45.088;7.658;2023-04-24T04:22:43;97777.78;;;9.24;88.99
74798;BME280;63326;45.088;7.658;2023-04-24T04:25:15;97803.59;;;9.38;88.47
74798;BME280;63326;45.088;7.658;2023-04-24T04:27:46;97787.53;;;9.38;88.43
74798;BME280;63326;45.088;7.658;2023-04-24T04:30:15;97798.72;;;9.48;87.64
74798;BME280;63326;45.088;7.658;2023-04-24T04:32:50;97799.75;;;9.47;87.52
74798;BME280;63326;45.088;7.658;2023-04-24T04:35:17;97800.16;;;9.44;87.17
74798;BME280;63326;45.088;7.658;2023-04-24T04:37:44;97809.63;;;9.47;88.46
74798;BME280;63326;45.088;7.658;2023-04-24T04:40:32;97805.78;;;9.28;87.95
74798;BME280;63326;45.088;7.658;2023-04-24T04:43:02;97818.59;;;9.33;87.93
74798;BME280;63326;45.088;7.658;2023-04-24T04:45:37;97822.66;;;9.29;88.42
74798;BME280;63326;45.088;7.658;2023-04-24T04:48:23;97810.31;;;9.28;88.75
74798;BME280;63326;45.088;7.658;2023-04-24T04:50:51;97814.47;;;9.30;88.27
74798;BME280;63326;45.088;7.658;2023-04-24T04:53:20;97815.63;;;9.21;89.13
74798;BME280;63326;45.088;7.658;2023-04-24T04:55:47;97826.00;;;9.31;89.52
74798;BME280;63326;45.088;7.658;2023-04-24T04:58:15;97833.75;;;9.26;89.03
74798;BME280;63326;45.088;7.658;2023-04-24T05:00:43;97842.41;;;9.28;88.26
74798;BME280;63326;45.088;7.658;2023-04-24T05:03:20;97838.16;;;9.33;88.22
74798;BME280;63326;45.088;7.658;2023-04-24T05:05:54;97843.09;;;9.36;87.42
74798;BME280;63326;45.088;7.658;2023-04-24T05:08:23;97841.25;;;9.37;88.43
74798;BME280;63326;45.088;7.658;2023-04-24T05:10:54;97839.47;;;9.44;87.99
74798;BME280;63326;45.088;7.658;2023-04-24T05:13:21;97837.84;;;9.49;87.64
74798;BME280;63326;45.088;7.658;2023-04-24T05:16:08;97835.28;;;9.63;87.40
74798;BME280;63326;45.088;7.658;2023-04-24T05:18:35;97843.53;;;9.68;87.28
74798;BME280;63326;45.088;7.658;2023-04-24T05:21:03;97819.22;;;9.69;87.19
74798;BME280;63326;45.088;7.658;2023-04-24T05:23:30;97847.97;;;9.89;86.60
74798;BME280;63326;45.088;7.658;2023-04-24T05:25:57;97852.31;;;9.90;86.48
74798;BME280;63326;45.088;7.658;2023-04-24T05:28:23;97863.25;;;9.95;86.63
74798;BME280;63326;45.088;7.658;2023-04-24T05:31:03;97863.78;;;10.12;86.80
74798;BME280;63326;45.088;7.658;2023-04-24T05:33:30;97870.56;;;10.14;86.21
74798;BME280;63326;45.088;7.658;2023-04-24T05:35:57;97879.03;;;10.18;85.95
74798;BME280;63326;45.088;7.658;2023-04-24T05:38:24;97878.91;;;10.26;85.20
74798;BME280;63326;45.088;7.658;2023-04-24T05:40:50;97869.75;;;10.20;85.20
74798;BME280;63326;45.088;7.658;2023-04-24T05:43:17;97873.22;;;10.07;85.28
74798;BME280;63326;45.088;7.658;2023-04-24T05:45:44;97877.59;;;10.15;86.08
74798;BME280;63326;45.088;7.658;2023-04-24T05:48:10;97877.59;;;10.15;85.64
74798;BME280;63326;45.088;7.658;2023-04-24T05:50:37;97887.56;;;10.28;85.22
74798;BME280;63326;45.088;7.658;2023-04-24T05:53:04;97872.56;;;10.33;85.38
74798;BME280;63326;45.088;7.658;2023-04-24T05:55:36;97873.63;;;10.52;84.89
74798;BME280;63326;45.088;7.658;2023-04-24T05:58:03;97877.16;;;10.53;84.72
74798;BME280;63326;45.088;7.658;2023-04-24T06:00:32;97862.28;;;10.44;84.72
74798;BME280;63326;45.088;7.658;2023-04-24T06:03:04;97875.31;;;10.60;84.79
74798;BME280;63326;45.088;7.658;2023-04-24T06:05:31;97858.00;;;10.62;83.96
74798;BME280;63326;45.088;7.658;2023-04-24T06:07:58;97875.16;;;10.75;83.78
74798;BME280;63326;45.088;7.658;2023-04-24T06:10:30;97878.88;;;10.80;84.29
74798;BME280;63326;45.088;7.658;2023-04-24T06:12:57;97877.06;;;10.87;84.22
74798;BME280;63326;45.088;7.658;2023-04-24T06:15:29;97887.38;;;10.97;83.95
74798;BME280;63326;45.088;7.658;2023-04-24T06:18:19;97891.09;;;11.03;84.67
74798;BME280;63326;45.088;7.658;2023-04-24T06:20:47;97883.88;;;11.03;84.44
74798;BME280;63326;45.088;7.658;2023-04-24T06:23:13;97884.53;;;11.18;84.39
74798;BME280;63326;45.088;7.658;2023-04-24T06:25:40;97871.75;;;11.27;84.55
74798;BME280;63326;45.088;7.658;2023-04-24T06:28:07;97872.78;;;11.46;85.43
74798;BME280;63326;45.088;7.658;2023-04-24T06:30:34;97865.53;;;11.66;86.36
74798;BME280;63326;45.088;7.658;2023-04-24T06:33:01;97863.03;;;11.78;85.70
74798;BME280;63326;45.088;7.658;2023-04-24T06:35:45;97858.31;;;11.87;85.07
74798;BME280;63326;45.088;7.658;2023-04-24T06:38:12;97849.00;;;11.96;84.47
74798;BME280;63326;45.088;7.658;2023-04-24T06:40:38;97850.81;;;12.02;82.81
74798;BME280;63326;45.088;7.658;2023-04-24T06:43:05;97844.19;;;12.04;81.09
74798;BME280;63326;45.088;7.658;2023-04-24T06:45:32;97850.56;;;12.23;80.31
74798;BME280;63326;45.088;7.658;2023-04-24T06:47:59;97860.59;;;12.48;80.95
74798;BME280;63326;45.088;7.658;2023-04-24T06:50:25;97858.22;;;12.71;80.26
74798;BME280;63326;45.088;7.658;2023-04-24T06:52:52;97848.75;;;12.93;78.74
74798;BME280;63326;45.088;7.658;2023-04-24T06:55:19;97866.75;;;13.31;77.42
74798;BME280;63326;45.088;7.658;2023-04-24T06:57:45;97874.50;;;13.46;74.06
74798;BME280;63326;45.088;7.658;2023-04-24T07:00:12;97871.47;;;13.36;73.33
74798;BME280;63326;45.088;7.658;2023-04-24T07:02:39;97871.50;;;13.61;72.38
74798;BME280;63326;45.088;7.658;2023-04-24T07:05:06;97876.97;;;13.72;71.98
74798;BME280;63326;45.088;7.658;2023-04-24T07:07:34;97867.88;;;13.92;70.85
74798;BME280;63326;45.088;7.658;2023-04-24T07:10:04;97870.03;;;14.45;70.47
74798;BME280;63326;45.088;7.658;2023-04-24T07:12:32;97868.97;;;14.94;69.43
74798;BME280;63326;45.088;7.658;2023-04-24T07:15:00;97864.59;;;15.23;68.09
74798;BME280;63326;45.088;7.658;2023-04-24T07:17:26;97870.81;;;15.65;66.84
74798;BME280;63326;45.088;7.658;2023-04-24T07:19:53;97855.16;;;16.02;65.38
74798;BME280;63326;45.088;7.658;2023-04-24T07:22:20;97852.81;;;16.06;66.09
74798;BME280;63326;45.088;7.658;2023-04-24T07:24:46;97844.16;;;16.32;64.44
74798;BME280;63326;45.088;7.658;2023-04-24T07:27:13;97853.28;;;16.66;63.39
74798;BME280;63326;45.088;7.658;2023-04-24T07:29:41;97863.28;;;16.94;61.98
74798;BME280;63326;45.088;7.658;2023-04-24T07:32:08;97860.69;;;16.99;59.95
74798;BME280;63326;45.088;7.658;2023-04-24T07:34:35;97859.38;;;17.47;60.34
74798;BME280;63326;45.088;7.658;2023-04-24T07:37:02;97856.59;;;17.59;57.97
74798;BME280;63326;45.088;7.658;2023-04-24T07:39:29;97852.38;;;17.35;58.68
74798;BME280;63326;45.088;7.658;2023-04-24T07:41:56;97848.28;;;17.82;57.92
74798;BME280;63326;45.088;7.658;2023-04-24T07:44:23;97854.03;;;18.03;56.78
74798;BME280;63326;45.088;7.658;2023-04-24T07:46:50;97854.63;;;17.88;56.46
74798;BME280;63326;45.088;7.658;2023-04-24T07:49:16;97855.00;;;17.63;58.07
74798;BME280;63326;45.088;7.658;2023-04-24T07:51:45;97859.22;;;17.37;59.04
74798;BME280;63326;45.088;7.658;2023-04-24T07:54:12;97861.66;;;16.53;60.64
74798;BME280;63326;45.088;7.658;2023-04-24T07:56:38;97856.69;;;16.10;62.15
74798;BME280;63326;45.088;7.658;2023-04-24T07:59:06;97868.09;;;16.00;62.59
74798;BME280;63326;45.088;7.658;2023-04-24T08:01:33;97873.84;;;16.04;62.78
74798;BME280;63326;45.088;7.658;2023-04-24T08:03:59;97872.56;;;15.83;64.17
74798;BME280;63326;45.088;7.658;2023-04-24T08:06:26;97856.59;;;16.05;62.74
74798;BME280;63326;45.088;7.658;2023-04-24T08:08:57;97843.63;;;16.19;62.13
74798;BME280;63326;45.088;7.658;2023-04-24T08:11:25;97855.66;;;16.91;59.41
74798;BME280;63326;45.088;7.658;2023-04-24T08:13:51;97871.75;;;17.43;57.73
74798;BME280;63326;45.088;7.658;2023-04-24T08:16:18;97867.69;;;17.58;57.75
74798;BME280;63326;45.088;7.658;2023-04-24T08:18:45;97860.13;;;17.60;56.87
74798;BME280;63326;45.088;7.658;2023-04-24T08:21:12;97857.81;;;18.02;55.59
74798;BME280;63326;45.088;7.658;2023-04-24T08:23:43;97859.22;;;18.48;54.44
74798;BME280;63326;45.088;7.658;2023-04-24T08:26:10;97856.53;;;18.92;52.22
74798;BME280;63326;45.088;7.658;2023-04-24T08:28:37;97853.19;;;18.85;52.09
74798;BME280;63326;45.088;7.658;2023-04-24T08:31:04;97849.41;;;18.86;50.77
74798;BME280;63326;45.088;7.658;2023-04-24T08:33:31;97840.28;;;18.97;49.78
74798;BME280;63326;45.088;7.658;2023-04-24T08:36:05;97841.66;;;19.26;48.85
74798;BME280;63326;45.088;7.658;2023-04-24T08:38:33;97840.06;;;19.95;48.57
74798;BME280;63326;45.088;7.658;2023-04-24T08:41:01;97847.47;;;20.09;48.11
74798;BME280;63326;45.088;7.658;2023-04-24T08:43:28;97846.75;;;19.50;48.64
74798;BME280;63326;45.088;7.658;2023-04-24T08:45:55;97843.72;;;20.16;48.78
74798;BME280;63326;45.088;7.658;2023-04-24T08:48:23;97851.38;;;19.81;48.64
74798;BME280;63326;45.088;7.658;2023-04-24T08:50:58;97853.94;;;19.98;48.48
74798;BME280;63326;45.088;7.658;2023-04-24T08:53:26;97861.94;;;20.15;48.31
74798;BME280;63326;45.088;7.658;2023-04-24T08:55:54;97867.41;;;19.78;49.38
74798;BME280;63326;45.088;7.658;2023-04-24T08:58:20;97861.81;;;19.95;48.98
74798;BME280;63326;45.088;7.658;2023-04-24T09:00:49;97843.50;;;20.27;48.65
74798;BME280;63326;45.088;7.658;2023-04-24T09:03:16;97852.94;;;20.57;47.08
74798;BME280;63326;45.088;7.658;2023-04-24T09:05:46;97860.97;;;20.99;46.51
74798;BME280;63326;45.088;7.658;2023-04-24T09:08:14;97861.91;;;20.57;46.70
74798;BME280;63326;45.088;7.658;2023-04-24T09:10:41;97855.31;;;20.01;47.04
74798;BME280;63326;45.088;7.658;2023-04-24T09:13:08;97868.91;;;21.16;45.77
74798;BME280;63326;45.088;7.658;2023-04-24T09:15:40;97874.94;;;20.45;46.07
74798;BME280;63326;45.088;7.658;2023-04-24T09:18:07;97858.59;;;21.28;45.21
74798;BME280;63326;45.088;7.658;2023-04-24T09:20:34;97878.56;;;21.69;44.07
74798;BME280;63326;45.088;7.658;2023-04-24T09:23:02;97865.03;;;22.54;42.45
74798;BME280;63326;45.088;7.658;2023-04-24T09:25:33;97864.63;;;22.11;42.32
74798;BME280;63326;45.088;7.658;2023-04-24T09:28:02;97861.88;;;22.17;42.57
74798;BME280;63326;45.088;7.658;2023-04-24T09:30:29;97849.63;;;21.38;43.05
74798;BME280;63326;45.088;7.658;2023-04-24T09:33:15;97879.38;;;22.10;42.23
74798;BME280;63326;45.088;7.658;2023-04-24T09:35:52;97873.13;;;22.90;39.91
74798;BME280;63326;45.088;7.658;2023-04-24T09:38:30;97870.13;;;22.81;38.82
74798;BME280;63326;45.088;7.658;2023-04-24T09:41:01;97873.00;;;23.54;38.81
74798;BME280;63326;45.088;7.658;2023-04-24T09:43:30;97875.09;;;23.68;37.41
74798;BME280;63326;45.088;7.658;2023-04-24T09:45:58;97865.72;;;24.08;37.60
74798;BME280;63326;45.088;7.658;2023-04-24T09:48:38;97853.38;;;24.39;36.74
74798;BME280;63326;45.088;7.658;2023-04-24T09:51:06;97870.13;;;24.81;35.30
74798;BME280;63326;45.088;7.658;2023-04-24T09:53:38;97849.19;;;25.14;34.47
74798;BME280;63326;45.088;7.658;2023-04-24T09:56:12;97858.59;;;25.45;33.51
74798;BME280;63326;45.088;7.658;2023-04-24T09:58:39;97868.53;;;25.04;34.33
74798;BME280;63326;45.088;7.658;2023-04-24T10:01:06;97856.97;;;25.44;33.32
74798;BME280;63326;45.088;7.658;2023-04-24T10:03:33;97868.25;;;24.28;34.48
74798;BME280;63326;45.088;7.658;2023-04-24T10:06:03;97870.25;;;23.94;35.92
74798;BME280;63326;45.088;7.658;2023-04-24T10:08:36;97868.03;;;24.96;33.63
74798;BME280;63326;45.088;7.658;2023-04-24T10:11:04;97838.13;;;24.76;33.62
74798;BME280;63326;45.088;7.658;2023-04-24T10:13:32;97858.78;;;25.49;32.99
74798;BME280;63326;45.088;7.658;2023-04-24T10:16:00;97829.44;;;26.28;32.54
74798;BME280;63326;45.088;7.658;2023-04-24T10:18:27;97847.97;;;27.05;30.52
74798;BME280;63326;45.088;7.658;2023-04-24T10:20:54;97850.88;;;27.22;30.53
74798;BME280;63326;45.088;7.658;2023-04-24T10:23:24;97842.94;;;27.21;29.41
74798;BME280;63326;45.088;7.658;2023-04-24T10:25:52;97849.41;;;26.75;29.67
74798;BME280;63326;45.088;7.658;2023-04-24T10:28:20;97837.34;;;25.70;30.13
74798;BME280;63326;45.088;7.658;2023-04-24T10:30:47;97839.34;;;26.57;30.39
74798;BME280;63326;45.088;7.658;2023-04-24T10:33:14;97825.69;;;27.29;29.31
74798;BME280;63326;45.088;7.658;2023-04-24T10:35:44;97834.09;;;27.91;28.50
74798;BME280;63326;45.088;7.658;2023-04-24T10:38:13;97839.47;;;28.27;27.60
74798;BME280;63326;45.088;7.658;2023-04-24T10:40:42;97829.94;;;28.73;27.23
74798;BME280;63326;45.088;7.658;2023-04-24T10:43:10;97831.56;;;28.74;26.03
74798;BME280;63326;45.088;7.658;2023-04-24T10:45:38;97830.28;;;27.78;27.26
74798;BME280;63326;45.088;7.658;2023-04-24T10:48:07;97821.00;;;26.52;28.71
74798;BME280;63326;45.088;7.658;2023-04-24T10:50:47;97830.38;;;26.51;28.11
74798;BME280;63326;45.088;7.658;2023-04-24T10:53:22;97829.50;;;27.64;25.81
74798;BME280;63326;45.088;7.658;2023-04-24T10:58:23;97816.97;;;28.74;23.72
74798;BME280;63326;45.088;7.658;2023-04-24T11:01:00;97818.84;;;29.30;22.27
74798;BME280;63326;45.088;7.658;2023-04-24T11:03:29;97808.28;;;29.67;21.30
74798;BME280;63326;45.088;7.658;2023-04-24T11:08:28;97802.44;;;29.25;23.21
74798;BME280;63326;45.088;7.658;2023-04-24T11:11:02;97794.94;;;28.91;23.13
74798;BME280;63326;45.088;7.658;2023-04-24T11:16:26;97792.81;;;28.88;22.82
74798;BME280;63326;45.088;7.658;2023-04-24T11:19:09;97792.66;;;29.88;22.23
74798;BME280;63326;45.088;7.658;2023-04-24T11:29:47;97778.69;;;30.70;21.50
74798;BME280;63326;45.088;7.658;2023-04-24T11:32:23;97769.53;;;30.78;19.97
74798;BME280;63326;45.088;7.658;2023-04-24T11:34:54;97765.41;;;31.05;19.28
74798;BME280;63326;45.088;7.658;2023-04-24T11:37:39;97763.41;;;32.13;17.62
74798;BME280;63326;45.088;7.658;2023-04-24T11:40:11;97769.91;;;32.66;18.40
74798;BME280;63326;45.088;7.658;2023-04-24T11:42:43;97755.53;;;32.76;17.64
74798;BME280;63326;45.088;7.658;2023-04-24T11:45:15;97751.78;;;33.21;17.29
74798;BME280;63326;45.088;7.658;2023-04-24T11:47:43;97749.88;;;31.66;18.21
74798;BME280;63326;45.088;7.658;2023-04-24T11:50:15;97740.88;;;32.15;18.11
74798;BME280;63326;45.088;7.658;2023-04-24T11:52:47;97754.06;;;32.54;16.93
74798;BME280;63326;45.088;7.658;2023-04-24T11:57:51;97743.59;;;33.40;14.78
74798;BME280;63326;45.088;7.658;2023-04-24T12:00:20;97751.03;;;33.64;14.56
74798;BME280;63326;45.088;7.658;2023-04-24T12:02:48;97735.53;;;33.79;14.27
74798;BME280;63326;45.088;7.658;2023-04-24T12:05:26;97733.06;;;34.05;14.09
74798;BME280;63326;45.088;7.658;2023-04-24T12:07:54;97741.75;;;34.35;14.45
74798;BME280;63326;45.088;7.658;2023-04-24T12:10:26;97737.47;;;34.06;13.00
74798;BME280;63326;45.088;7.658;2023-04-24T12:12:53;97738.34;;;32.83;14.40
74798;BME280;63326;45.088;7.658;2023-04-24T12:15:21;97736.47;;;32.01;15.33
74798;BME280;63326;45.088;7.658;2023-04-24T12:17:51;97733.09;;;31.84;14.10
74798;BME280;63326;45.088;7.658;2023-04-24T12:20:27;97715.78;;;32.72;11.06
74798;BME280;63326;45.088;7.658;2023-04-24T12:22:59;97729.06;;;33.75;12.33
74798;BME280;63326;45.088;7.658;2023-04-24T12:25:31;97718.47;;;33.65;9.75
74798;BME280;63326;45.088;7.658;2023-04-24T12:30:34;97724.59;;;27.43;12.07
74798;BME280;63326;45.088;7.658;2023-04-24T12:33:02;97724.31;;;28.64;12.98
74798;BME280;63326;45.088;7.658;2023-04-24T12:35:31;97702.25;;;29.33;11.11
74798;BME280;63326;45.088;7.658;2023-04-24T12:38:12;97706.88;;;28.37;9.93
74798;BME280;63326;45.088;7.658;2023-04-24T12:40:43;97706.66;;;29.00;9.02
74798;BME280;63326;45.088;7.658;2023-04-24T12:43:18;97696.03;;;26.72;9.37
74798;BME280;63326;45.088;7.658;2023-04-24T12:45:48;97704.59;;;27.82;9.48
74798;BME280;63326;45.088;7.658;2023-04-24T12:48:14;97692.41;;;27.75;13.90
74798;BME280;63326;45.088;7.658;2023-04-24T12:50:43;97698.84;;;29.83;12.70
74798;BME280;63326;45.088;7.658;2023-04-24T12:53:12;97713.53;;;31.35;12.54
74798;BME280;63326;45.088;7.658;2023-04-24T12:55:39;97718.94;;;33.11;10.87
74798;BME280;63326;45.088;7.658;2023-04-24T12:58:06;97704.88;;;32.79;11.05
74798;BME280;63326;45.088;7.658;2023-04-24T13:00:33;97703.38;;;32.94;11.59
74798;BME280;63326;45.088;7.658;2023-04-24T13:03:00;97712.16;;;30.87;14.56
74798;BME280;63326;45.088;7.658;2023-04-24T13:05:27;97724.69;;;31.92;12.82
74798;BME280;63326;45.088;7.658;2023-04-24T13:07:54;97706.59;;;31.74;8.38
74798;BME280;63326;45.088;7.658;2023-04-24T13:10:21;97695.75;;;30.82;8.09
74798;BME280;63326;45.088;7.658;2023-04-24T13:12:48;97670.50;;;28.18;12.18
74798;BME280;63326;45.088;7.658;2023-04-24T13:15:15;97720.63;;;30.31;10.90
74798;BME280;63326;45.088;7.658;2023-04-24T13:17:42;97704.75;;;30.49;8.11
74798;BME280;63326;45.088;7.658;2023-04-24T13:20:09;97687.75;;;28.32;13.05
74798;BME280;63326;45.088;7.658;2023-04-24T13:22:36;97702.88;;;31.24;11.25
74798;BME280;63326;45.088;7.658;2023-04-24T13:25:04;97704.47;;;32.04;11.30
74798;BME280;63326;45.088;7.658;2023-04-24T13:27:32;97683.69;;;30.36;7.27
74798;BME280;63326;45.088;7.658;2023-04-24T13:29:59;97686.63;;;29.54;8.38
74798;BME280;63326;45.088;7.658;2023-04-24T13:32:25;97697.28;;;27.24;8.19